createdAt,value
2022-09-11T00:01:22.389Z,81.92
2022-09-11T00:04:10.146Z,85.55
2022-09-11T00:06:56.030Z,85.96
2022-09-11T00:09:42.449Z,93.78
2022-09-11T00:12:28.253Z,90.70
2022-09-11T00:15:14.588Z,89.79
2022-09-11T00:18:00.498Z,87.81
2022-09-11T00:20:52.132Z,87.07
2022-09-11T00:23:38.409Z,86.26
2022-09-11T00:26:25.257Z,84.74
2022-09-11T00:29:11.887Z,83.65
2022-09-11T00:31:58.414Z,83.63
2022-09-11T00:34:46.920Z,80.42
2022-09-11T00:37:33.169Z,82.41
2022-09-11T00:40:19.687Z,82.63
2022-09-11T00:43:10.057Z,83.87
2022-09-11T00:46:03.283Z,83.12
2022-09-11T00:48:50.112Z,79.99
2022-09-11T00:51:37.851Z,80.34
2022-09-11T00:54:31.078Z,83.37
2022-09-11T00:57:18.477Z,83.13
2022-09-11T01:00:05.565Z,82.15
2022-09-11T01:02:53.567Z,81.73
2022-09-11T01:05:41.389Z,79.35
2022-09-11T01:08:27.770Z,80.82
2022-09-11T01:11:26.015Z,86.50
2022-09-11T01:14:42.249Z,88.32
2022-09-11T01:17:54.106Z,90.49
2022-09-11T01:20:52.954Z,91.80
2022-09-11T01:24:04.457Z,88.83
2022-09-11T01:26:53.533Z,92.78
2022-09-11T01:29:44.870Z,99.31
2022-09-11T01:32:37.219Z,100.00
2022-09-11T01:35:29.147Z,100.00
2022-09-11T01:38:53.541Z,100.00
2022-09-11T01:42:01.491Z,100.00
2022-09-11T01:44:51.923Z,100.00
2022-09-11T01:47:38.874Z,100.00
2022-09-11T01:50:25.427Z,100.00
2022-09-11T01:53:13.033Z,100.00
2022-09-11T01:56:04.967Z,100.00
2022-09-11T01:58:57.024Z,100.00
2022-09-11T02:01:50.189Z,100.00
2022-09-11T02:04:41.050Z,100.00
2022-09-11T02:07:35.291Z,100.00
2022-09-11T02:10:54.361Z,100.00
2022-09-11T02:13:52.882Z,100.00
2022-09-11T02:16:50.161Z,100.00
2022-09-11T02:19:36.620Z,100.00
2022-09-11T02:22:23.327Z,100.00
2022-09-11T02:25:09.554Z,100.00
2022-09-11T02:27:58.973Z,100.00
2022-09-11T02:30:45.538Z,100.00
2022-09-11T02:33:37.030Z,100.00
2022-09-11T02:36:32.304Z,100.00
2022-09-11T02:39:39.512Z,100.00
2022-09-11T02:42:31.578Z,100.00
2022-09-11T02:45:32.601Z,100.00
2022-09-11T02:48:44.172Z,100.00
2022-09-11T02:51:37.107Z,100.00
2022-09-11T02:54:30.406Z,100.00
2022-09-11T02:57:33.248Z,100.00
2022-09-11T03:00:19.799Z,100.00
2022-09-11T03:03:06.247Z,100.00
2022-09-11T03:05:53.170Z,100.00
2022-09-11T03:08:41.054Z,100.00
2022-09-11T03:11:27.782Z,100.00
2022-09-11T03:14:15.139Z,100.00
2022-09-11T03:17:02.134Z,100.00
2022-09-11T03:19:49.540Z,100.00
2022-09-11T03:22:36.573Z,100.00
2022-09-11T03:25:28.251Z,100.00
2022-09-11T03:28:14.752Z,100.00
2022-09-11T03:31:01.269Z,100.00
2022-09-11T03:33:48.067Z,100.00
2022-09-11T03:36:35.051Z,100.00
2022-09-11T03:39:21.568Z,100.00
2022-09-11T03:42:12.247Z,100.00
2022-09-11T03:44:58.532Z,100.00
2022-09-11T03:47:44.843Z,100.00
2022-09-11T03:50:31.263Z,100.00
2022-09-11T03:53:17.538Z,99.85
2022-09-11T03:56:05.041Z,100.00
2022-09-11T03:58:57.994Z,100.00
2022-09-11T04:01:45.111Z,100.00
2022-09-11T04:04:32.933Z,100.00
2022-09-11T04:07:19.469Z,100.00
2022-09-11T04:10:06.815Z,100.00
2022-09-11T04:12:53.295Z,100.00
2022-09-11T04:15:40.516Z,100.00
2022-09-11T04:18:26.601Z,100.00
2022-09-11T04:21:16.056Z,100.00
2022-09-11T04:24:02.688Z,100.00
2022-09-11T04:26:49.050Z,100.00
2022-09-11T04:29:35.441Z,100.00
2022-09-11T04:32:22.275Z,100.00
2022-09-11T04:35:09.053Z,100.00
2022-09-11T04:37:55.673Z,98.62
2022-09-11T04:40:42.090Z,96.00
2022-09-11T04:43:32.996Z,94.75
2022-09-11T04:46:19.722Z,93.95
2022-09-11T04:49:06.125Z,95.54
2022-09-11T04:51:52.999Z,94.20
2022-09-11T04:54:39.870Z,95.26
2022-09-11T04:57:26.757Z,93.40
2022-09-11T05:00:13.652Z,94.10
2022-09-11T05:03:01.941Z,94.63
2022-09-11T05:05:48.562Z,95.54
2022-09-11T05:08:34.886Z,95.42
2022-09-11T05:11:21.778Z,94.99
2022-09-11T05:14:08.982Z,94.78
2022-09-11T05:16:55.437Z,95.04
2022-09-11T05:19:43.290Z,93.91
2022-09-11T05:22:29.919Z,95.63
2022-09-11T05:25:18.585Z,94.73
2022-09-11T05:28:05.954Z,93.34
2022-09-11T05:30:55.926Z,96.75
2022-09-11T05:33:44.369Z,96.24
2022-09-11T05:36:31.218Z,96.24
2022-09-11T05:39:17.809Z,96.02
2022-09-11T05:42:04.592Z,95.98
2022-09-11T05:44:52.266Z,93.54
2022-09-11T05:47:39.276Z,93.77
2022-09-11T05:50:25.875Z,93.53
2022-09-11T05:53:12.652Z,95.72
2022-09-11T05:56:09.582Z,95.94
2022-09-11T05:58:58.032Z,95.94
2022-09-11T06:01:47.556Z,100.00
2022-09-11T06:04:34.259Z,98.18
2022-09-11T06:07:20.596Z,98.76
2022-09-11T06:10:08.245Z,98.00
2022-09-11T06:12:54.268Z,97.92
2022-09-11T06:15:46.836Z,100.00
2022-09-11T06:18:33.206Z,100.00
2022-09-11T06:21:23.627Z,100.00
2022-09-11T06:24:10.773Z,98.36
2022-09-11T06:26:58.010Z,98.30
2022-09-11T06:29:44.952Z,100.00
2022-09-11T06:32:31.311Z,100.00
2022-09-11T06:35:18.672Z,100.00
2022-09-11T06:38:05.651Z,100.00
2022-09-11T06:40:53.866Z,100.00
2022-09-11T06:43:40.681Z,100.00
2022-09-11T06:46:27.129Z,100.00
2022-09-11T06:49:14.476Z,100.00
2022-09-11T06:52:18.996Z,100.00
2022-09-11T06:55:07.831Z,100.00
2022-09-11T06:57:54.822Z,100.00
2022-09-11T07:00:41.345Z,100.00
2022-09-11T07:03:29.464Z,100.00
2022-09-11T07:06:17.775Z,100.00
2022-09-11T07:09:04.581Z,100.00
2022-09-11T07:11:51.795Z,97.24
2022-09-11T07:14:38.588Z,98.10
2022-09-11T07:17:25.174Z,93.60
2022-09-11T07:20:11.628Z,93.57
2022-09-11T07:22:58.595Z,95.13
2022-09-11T07:25:45.744Z,94.81
2022-09-11T07:28:32.942Z,96.85
2022-09-11T07:31:21.624Z,95.66
2022-09-11T07:34:08.582Z,93.91
2022-09-11T07:36:55.469Z,93.82
2022-09-11T07:39:42.882Z,92.54
2022-09-11T07:42:29.798Z,90.52
2022-09-11T07:45:22.065Z,91.23
2022-09-11T07:48:08.921Z,92.38
2022-09-11T07:50:58.805Z,87.82
2022-09-11T07:53:57.887Z,90.24
2022-09-11T07:56:45.201Z,89.48
2022-09-11T07:59:31.623Z,88.90
2022-09-11T08:02:18.206Z,87.37
2022-09-11T08:05:04.655Z,87.25
2022-09-11T08:07:51.160Z,89.76
2022-09-11T08:10:39.732Z,89.75
2022-09-11T08:13:25.741Z,91.05
2022-09-11T08:16:12.087Z,90.81
2022-09-11T08:18:58.942Z,91.94
2022-09-11T08:21:45.221Z,91.03
2022-09-11T08:24:31.532Z,89.29
2022-09-11T08:27:19.502Z,87.70
2022-09-11T08:30:06.210Z,87.97
2022-09-11T08:32:52.573Z,88.02
2022-09-11T08:35:39.181Z,89.85
2022-09-11T08:38:25.894Z,86.86
2022-09-11T08:41:24.427Z,86.34
2022-09-11T08:44:28.407Z,83.30
2022-09-11T08:47:29.331Z,85.14
2022-09-11T08:50:23.553Z,86.84
2022-09-11T08:53:17.326Z,86.86
2022-09-11T08:56:12.751Z,86.28
2022-09-11T08:59:10.554Z,86.23
2022-09-11T09:02:46.434Z,86.34
2022-09-11T09:05:41.894Z,84.53
2022-09-11T09:08:35.193Z,81.96
2022-09-11T09:11:55.720Z,80.78
2022-09-11T09:15:07.134Z,77.83
2022-09-11T09:17:59.299Z,83.37
2022-09-11T09:20:51.975Z,82.08
2022-09-11T09:23:44.806Z,78.92
2022-09-11T09:26:39.961Z,78.88
2022-09-11T09:29:30.558Z,79.69
2022-09-11T09:32:24.193Z,80.67
2022-09-11T09:35:18.513Z,79.53
2022-09-11T09:38:28.500Z,78.64
2022-09-11T09:41:36.366Z,81.41
2022-09-11T09:44:31.844Z,80.91
2022-09-11T09:47:18.144Z,80.12
2022-09-11T09:50:05.597Z,79.23
2022-09-11T09:52:51.655Z,78.34
2022-09-11T09:55:39.497Z,76.72
2022-09-11T09:58:29.958Z,75.52
2022-09-11T10:01:45.245Z,73.88
2022-09-11T10:04:31.787Z,77.21
2022-09-11T10:07:21.774Z,78.59
2022-09-11T10:10:21.535Z,79.37
2022-09-11T10:13:21.279Z,79.86
2022-09-11T10:16:37.152Z,78.27
2022-09-11T10:19:35.418Z,79.77
2022-09-11T10:22:22.793Z,80.46
2022-09-11T10:25:13.171Z,82.38
2022-09-11T10:28:06.576Z,83.64
2022-09-11T10:30:53.445Z,83.79
2022-09-11T10:33:41.542Z,83.73
2022-09-11T10:36:29.535Z,82.29
2022-09-11T10:39:17.566Z,83.02
2022-09-11T10:42:16.847Z,83.44
2022-09-11T10:45:16.956Z,84.63
2022-09-11T10:48:16.979Z,82.56
2022-09-11T10:51:07.747Z,81.93
2022-09-11T10:53:58.551Z,79.83
2022-09-11T10:56:50.793Z,75.96
2022-09-11T10:59:58.718Z,71.93
2022-09-11T11:02:47.679Z,73.33
2022-09-11T11:05:46.447Z,75.54
2022-09-11T11:08:51.346Z,78.33
2022-09-11T11:11:51.155Z,78.04
2022-09-11T11:14:59.422Z,74.95
2022-09-11T11:18:00.556Z,73.18
2022-09-11T11:21:31.133Z,70.80
2022-09-11T11:24:41.684Z,72.79
2022-09-11T11:28:00.436Z,73.61
2022-09-11T11:31:00.921Z,70.13
2022-09-11T11:34:00.685Z,68.46
2022-09-11T11:36:52.223Z,66.55
2022-09-11T11:40:17.062Z,63.05
2022-09-11T11:43:17.258Z,65.85
2022-09-11T11:46:18.108Z,69.97
2022-09-11T11:49:20.574Z,69.51
2022-09-11T11:52:28.851Z,72.29
2022-09-11T11:55:39.028Z,69.99
2022-09-11T11:58:40.217Z,71.03
2022-09-11T12:01:40.313Z,69.91
2022-09-11T12:04:46.276Z,69.18
2022-09-11T12:07:33.935Z,71.70
2022-09-11T12:10:33.388Z,71.52
2022-09-11T12:13:20.671Z,72.96
2022-09-11T12:16:13.187Z,80.59
2022-09-11T12:19:04.426Z,89.52
2022-09-11T12:21:54.142Z,96.84
2022-09-11T12:25:00.074Z,100.00
2022-09-11T12:27:46.488Z,100.00
2022-09-11T12:31:11.714Z,100.00
2022-09-11T12:33:58.477Z,100.00
2022-09-11T12:37:33.124Z,100.00
2022-09-11T12:40:25.497Z,100.00
2022-09-11T12:43:31.022Z,100.00
2022-09-11T12:46:20.206Z,100.00
2022-09-11T12:49:21.690Z,100.00
2022-09-11T12:52:19.351Z,100.00
2022-09-11T12:55:27.099Z,98.95
2022-09-11T12:58:19.128Z,100.00
2022-09-11T13:01:17.738Z,100.00
2022-09-11T13:04:15.783Z,100.00
2022-09-11T13:07:05.362Z,100.00
2022-09-11T13:09:52.141Z,100.00
2022-09-11T13:12:48.931Z,100.00
2022-09-11T13:15:43.074Z,100.00
2022-09-11T13:18:32.079Z,100.00
2022-09-11T13:21:21.133Z,100.00
2022-09-11T13:24:35.734Z,100.00
2022-09-11T13:27:24.592Z,100.00
2022-09-11T13:30:14.054Z,100.00
2022-09-11T13:33:08.581Z,98.68
2022-09-11T13:35:57.648Z,99.27
2022-09-11T13:38:44.553Z,99.05
2022-09-11T13:41:37.972Z,99.41
2022-09-11T13:44:39.611Z,99.03
2022-09-11T13:47:27.423Z,100.00
2022-09-11T13:50:15.871Z,100.00
2022-09-11T13:53:02.369Z,100.00
2022-09-11T13:55:49.509Z,99.10
2022-09-11T13:58:35.915Z,99.79
2022-09-11T14:01:22.042Z,94.16
2022-09-11T14:04:11.016Z,90.70
2022-09-11T14:06:57.423Z,91.82
2022-09-11T14:09:47.920Z,90.24
2022-09-11T14:12:35.344Z,85.74
2022-09-11T14:15:41.528Z,86.22
2022-09-11T14:18:30.909Z,87.96
2022-09-11T14:21:20.077Z,82.84
2022-09-11T14:24:24.120Z,83.36
2022-09-11T14:27:35.241Z,80.00
2022-09-11T14:30:37.414Z,75.55
2022-09-11T14:33:27.091Z,80.53
2022-09-11T14:36:20.279Z,76.27
2022-09-11T14:39:07.851Z,80.86
2022-09-11T14:41:55.650Z,76.25
2022-09-11T14:44:42.395Z,78.55
2022-09-11T14:47:29.220Z,76.02
2022-09-11T14:50:15.821Z,74.93
2022-09-11T14:53:01.601Z,74.53
2022-09-11T14:55:47.855Z,73.33
2022-09-11T14:58:33.565Z,72.85
2022-09-11T15:01:20.012Z,72.15
2022-09-11T15:04:06.170Z,71.18
2022-09-11T15:06:55.777Z,72.01
2022-09-11T15:09:42.702Z,71.43
2022-09-11T15:12:29.435Z,72.50
2022-09-11T15:15:15.779Z,71.49
2022-09-11T15:18:02.115Z,66.82
2022-09-11T15:20:47.982Z,66.33
2022-09-11T15:23:34.662Z,70.66
2022-09-11T15:26:21.240Z,71.16
2022-09-11T15:29:09.997Z,72.40
2022-09-11T15:31:56.046Z,73.16
2022-09-11T15:34:43.930Z,74.79
2022-09-11T15:37:30.254Z,75.42
2022-09-11T15:40:17.162Z,75.48
2022-09-11T15:43:03.448Z,73.12
2022-09-11T15:45:50.167Z,73.29
2022-09-11T15:48:36.226Z,74.82
2022-09-11T15:51:24.049Z,75.76
2022-09-11T15:54:11.594Z,74.07
2022-09-11T15:56:58.021Z,76.46
2022-09-11T15:59:43.955Z,79.01
2022-09-11T16:02:30.255Z,79.59
2022-09-11T16:05:16.545Z,81.91
2022-09-11T16:08:02.872Z,84.33
2022-09-11T16:10:52.342Z,84.91
2022-09-11T16:13:40.259Z,84.98
2022-09-11T16:16:27.208Z,84.93
2022-09-11T16:19:19.379Z,84.85
2022-09-11T16:22:06.112Z,83.68
2022-09-11T16:24:51.864Z,84.83
2022-09-11T16:27:38.305Z,82.34
2022-09-11T16:30:42.651Z,83.84
2022-09-11T16:33:32.062Z,83.65
2022-09-11T16:36:20.560Z,83.89
2022-09-11T16:39:09.033Z,86.58
2022-09-11T16:41:55.648Z,87.66
2022-09-11T16:44:42.299Z,89.36
2022-09-11T16:47:30.427Z,89.62
2022-09-11T16:50:17.811Z,90.24
2022-09-11T16:53:03.739Z,93.63
2022-09-11T16:55:50.035Z,93.39
2022-09-11T16:58:36.922Z,94.45
2022-09-11T17:01:24.938Z,95.88
2022-09-11T17:04:10.756Z,95.69
2022-09-11T17:06:57.057Z,95.43
2022-09-11T17:09:43.742Z,97.61
2022-09-11T17:12:30.022Z,97.53
2022-09-11T17:15:16.537Z,96.82
2022-09-11T17:18:02.976Z,100.00
2022-09-11T17:20:49.173Z,100.00
2022-09-11T17:23:37.340Z,100.00
2022-09-11T17:26:24.047Z,100.00
2022-09-11T17:29:10.319Z,100.00
2022-09-11T17:32:16.690Z,100.00
2022-09-11T17:35:06.011Z,100.00
2022-09-11T17:37:58.311Z,98.60
2022-09-11T17:40:44.914Z,100.00
2022-09-11T17:43:31.293Z,100.00
2022-09-11T17:46:24.016Z,100.00
2022-09-11T17:49:10.064Z,100.00
2022-09-11T17:51:58.022Z,100.00
2022-09-11T17:54:44.294Z,100.00
2022-09-11T17:57:32.239Z,100.00
2022-09-11T18:00:18.545Z,100.00
2022-09-11T18:03:06.287Z,100.00
2022-09-11T18:05:52.577Z,100.00
2022-09-11T18:08:38.982Z,100.00
2022-09-11T18:11:25.358Z,100.00
2022-09-11T18:14:12.117Z,100.00
2022-09-11T18:16:58.406Z,100.00
2022-09-11T18:19:46.170Z,100.00
2022-09-11T18:22:32.362Z,100.00
2022-09-11T18:25:19.741Z,100.00
2022-09-11T18:28:07.065Z,100.00
2022-09-11T18:30:53.406Z,100.00
2022-09-11T18:33:39.804Z,100.00
2022-09-11T18:36:27.642Z,100.00
2022-09-11T18:39:15.253Z,100.00
2022-09-11T18:42:07.080Z,100.00
2022-09-11T18:44:53.038Z,100.00
2022-09-11T18:47:40.464Z,100.00
2022-09-11T18:50:26.865Z,100.00
2022-09-11T18:53:13.826Z,100.00
2022-09-11T18:56:04.565Z,100.00
2022-09-11T18:58:52.322Z,100.00
2022-09-11T19:01:39.975Z,100.00
2022-09-11T19:04:26.910Z,100.00
2022-09-11T19:07:13.506Z,100.00
2022-09-11T19:10:00.369Z,100.00
2022-09-11T19:12:48.323Z,100.00
2022-09-11T19:15:34.760Z,100.00
2022-09-11T19:18:21.602Z,100.00
2022-09-11T19:21:22.390Z,100.00
2022-09-11T19:24:08.704Z,100.00
2022-09-11T19:26:55.238Z,100.00
2022-09-11T19:29:41.485Z,100.00
2022-09-11T19:32:29.899Z,100.00
2022-09-11T19:35:15.776Z,100.00
2022-09-11T19:38:01.888Z,100.00
2022-09-11T19:40:47.717Z,100.00
2022-09-11T19:43:35.677Z,100.00
2022-09-11T19:46:26.586Z,100.00
2022-09-11T19:49:12.970Z,100.00
2022-09-11T19:52:00.404Z,100.00
2022-09-11T19:54:46.814Z,100.00
2022-09-11T19:57:33.082Z,100.00
2022-09-11T20:00:19.447Z,100.00
2022-09-11T20:03:05.783Z,100.00
2022-09-11T20:05:54.034Z,100.00
2022-09-11T20:08:43.367Z,100.00
2022-09-11T20:11:30.682Z,100.00
2022-09-11T20:14:17.349Z,100.00
2022-09-11T20:17:04.790Z,100.00
2022-09-11T20:19:51.534Z,100.00
2022-09-11T20:22:37.865Z,100.00
2022-09-11T20:25:23.894Z,100.00
2022-09-11T20:28:10.563Z,100.00
2022-09-11T20:30:57.098Z,100.00
2022-09-11T20:33:43.940Z,100.00
2022-09-11T20:36:31.485Z,100.00
2022-09-11T20:39:17.705Z,100.00
2022-09-11T20:42:04.295Z,100.00
2022-09-11T20:44:50.409Z,100.00
2022-09-11T20:47:36.582Z,100.00
2022-09-11T20:50:22.555Z,100.00
2022-09-11T20:53:08.909Z,100.00
2022-09-11T20:56:00.722Z,100.00
2022-09-11T20:58:47.320Z,100.00
2022-09-11T21:01:34.072Z,100.00
2022-09-11T21:04:20.424Z,100.00
2022-09-11T21:07:06.596Z,100.00
2022-09-11T21:09:52.929Z,100.00
2022-09-11T21:12:39.295Z,100.00
2022-09-11T21:15:25.633Z,100.00
2022-09-11T21:18:12.287Z,100.00
2022-09-11T21:20:59.117Z,100.00
2022-09-11T21:23:45.644Z,100.00
2022-09-11T21:26:33.225Z,100.00
2022-09-11T21:29:19.062Z,100.00
2022-09-11T21:32:05.174Z,100.00
2022-09-11T21:34:51.080Z,100.00
2022-09-11T21:37:37.541Z,100.00
2022-09-11T21:40:23.339Z,100.00
2022-09-11T21:43:09.820Z,100.00
2022-09-11T21:45:55.666Z,100.00
2022-09-11T21:48:42.042Z,100.00
2022-09-11T21:51:28.759Z,100.00
2022-09-11T21:54:14.794Z,100.00
2022-09-11T21:57:00.717Z,100.00
2022-09-11T21:59:47.313Z,100.00
2022-09-11T22:02:33.502Z,100.00
2022-09-11T22:05:19.713Z,100.00
2022-09-11T22:08:06.338Z,100.00
2022-09-11T22:10:52.929Z,100.00
2022-09-11T22:13:38.880Z,100.00
2022-09-11T22:16:25.614Z,100.00
2022-09-11T22:19:12.209Z,100.00
2022-09-11T22:21:58.568Z,100.00
2022-09-11T22:24:44.362Z,100.00
2022-09-11T22:27:30.449Z,100.00
2022-09-11T22:30:16.520Z,100.00
2022-09-11T22:33:02.672Z,100.00
2022-09-11T22:35:49.574Z,100.00
2022-09-11T22:38:35.982Z,100.00
2022-09-11T22:41:21.805Z,100.00
2022-09-11T22:44:11.065Z,100.00
2022-09-11T22:46:57.616Z,100.00
2022-09-11T22:49:44.030Z,100.00
2022-09-11T22:52:30.085Z,100.00
2022-09-11T22:55:16.490Z,100.00
2022-09-11T22:58:02.266Z,100.00
2022-09-11T23:00:49.925Z,100.00
2022-09-11T23:03:36.678Z,100.00
2022-09-11T23:06:41.614Z,100.00
2022-09-11T23:09:27.442Z,100.00
2022-09-11T23:12:14.002Z,100.00
2022-09-11T23:14:59.729Z,100.00
2022-09-11T23:17:46.757Z,100.00
2022-09-11T23:20:33.189Z,100.00
2022-09-11T23:23:19.650Z,100.00
2022-09-11T23:26:05.497Z,100.00
2022-09-11T23:28:53.006Z,100.00
2022-09-11T23:31:39.004Z,100.00
2022-09-11T23:34:25.230Z,100.00
2022-09-11T23:37:11.708Z,100.00
2022-09-11T23:39:57.927Z,100.00
2022-09-11T23:42:44.182Z,100.00
2022-09-11T23:45:30.582Z,100.00
2022-09-11T23:48:16.885Z,100.00
2022-09-11T23:51:03.945Z,100.00
2022-09-11T23:53:51.800Z,100.00
2022-09-11T23:56:37.951Z,100.00
2022-09-11T23:59:23.797Z,100.00
